Home   Weather   Ukraine   Chernobyl   Past weeks
Flag for Ukraine

Past Weather in Chernobyl, Ukraine — Yesterday and Last 2 Weeks

Currently: 59 °F. Sunny. (Weather station: Hostomel, Ukraine). See more current weather

Past Weather in Chernobyl — Graph

°F

Chernobyl Temperature Yesterday

Maximum temperature yesterday: 59 °F (at 4:00 pm)
Minimum temperature yesterday: 37 °F (at 3:30 am)
Average temperature yesterday: 48 °F

High & Low Weather Summary for the Past Weeks

 TemperatureHumidityPressure
High72 °F (May 1, 4:00 pm)100% (Apr 27, 6:00 am)30.33 "Hg (Apr 27, 6:00 am)
Low28 °F (Apr 28, 5:30 am)27% (Apr 28, 5:00 pm)29.62 "Hg (May 2, 10:30 pm)
Average51 °F60%29.91 "Hg
* Reported Apr 25 10:00 am — May 10 10:00 am, Chernobyl. Weather by CustomWeather, © 2021

Note: Actual official high and low records may vary slightly from our data, if they occured in-between our weather recording intervals... More about our weather records

Chernobyl Weather History for the Previous 24 Hours

Scroll right to see more
 ConditionsComfort  
Time TempWeatherWind HumidityBarometerVisibility
10:00 am
Mon, May 10
59 °FSunny.3 mph42%30.33 "HgN/A
9:30 am57 °FSunny.3 mph39%30.33 "HgN/A
9:00 am55 °FSunny.3 mph44%30.33 "HgN/A
8:30 am54 °FSunny.3 mph51%30.33 "HgN/A
8:00 am50 °FSunny.3 mph62%30.30 "HgN/A
7:30 am48 °FSunny.3 mph66%30.30 "HgN/A
6:30 am39 °FSunny.1 mph87%30.30 "Hg6 mi
6:00 am36 °FSunny.1 mph87%30.27 "HgN/A
5:30 am34 °FChilly.1 mph93%30.27 "Hg6 mi
5:00 am36 °FChilly.1 mph87%30.27 "Hg5 mi
4:30 am37 °FClear.1 mph87%30.27 "Hg6 mi
4:00 am37 °FClear.1 mph87%30.27 "HgN/A
3:30 am37 °FChilly.1 mph87%30.27 "Hg6 mi
3:00 am37 °FClear.1 mph93%30.27 "HgN/A
2:30 am39 °FClear.1 mph87%30.27 "HgN/A
2:00 am39 °FClear.1 mph81%30.27 "HgN/A
1:30 am41 °FClear.No wind70%30.27 "HgN/A
1:00 am43 °FClear.1 mph66%30.27 "HgN/A
12:30 am41 °FClear.1 mph76%30.27 "HgN/A
12:00 am45 °FClear.1 mph61%30.24 "HgN/A
11:30 pm
Sun, May 9
45 °FClear.1 mph61%30.24 "HgN/A
11:00 pm45 °FClear.1 mph66%30.24 "HgN/A
10:30 pm45 °FClear.1 mph57%30.24 "HgN/A
10:00 pm46 °FClear.1 mph53%30.24 "HgN/A
9:30 pm48 °FClear.No wind50%30.24 "HgN/A
9:00 pm52 °FClear.1 mph44%30.21 "HgN/A
8:30 pm54 °FSunny.1 mph44%30.21 "HgN/A
8:00 pm54 °FSunny.3 mph44%30.21 "HgN/A
7:30 pm55 °FSunny.3 mph38%30.18 "HgN/A
7:00 pm57 °FSunny.8 mph33%30.18 "HgN/A
6:30 pm57 °FSunny.8 mph33%30.18 "Hg10 mi
6:00 pm59 °FSunny.10 mph34%30.18 "Hg10 mi
5:30 pm57 °FPassing clouds.8 mph36%30.18 "HgN/A
5:00 pm55 °FSunny.10 mph38%30.18 "Hg10 mi
4:30 pm55 °FSunny.10 mph38%30.18 "Hg10 mi
4:00 pm59 °FPassing clouds.10 mph36%30.18 "HgN/A
3:30 pm55 °FSunny.10 mph38%30.18 "Hg10 mi
3:00 pm57 °FPassing clouds.13 mph39%30.18 "HgN/A
2:30 pm55 °FSunny.13 mph41%30.18 "Hg10 mi
2:00 pm55 °FPassing clouds.13 mph41%30.18 "HgN/A
1:30 pm54 °FPassing clouds.13 mph44%30.18 "HgN/A
1:00 pm54 °FSunny.13 mph44%30.18 "Hg10 mi
12:30 pm55 °FScattered clouds.15 mph44%30.18 "HgN/A
12:00 pm54 °FPassing clouds.13 mph44%30.18 "HgN/A
Weather by CustomWeather, © 2021

See weather overview